Data for 11/10/2008

Time Sea-Level Adjusted Pressure Absolute Pressure Temperature Relative Humidity Dew Point   
(mb) (inHg) (mb) (inHg) (C) (F) (%) (C) (F)
00:05 1010 29.83 839 24.78 4.4 40 84 1.9 35.4
00:10 1010 29.83 839 24.78 4.2 39.5 85 1.9 35.4
00:15 1010 29.83 839 24.78 4.2 39.6 84 1.8 35.3
00:20 1010 29.83 839 24.78 4.3 39.8 83 1.7 35
00:25 1010 29.83 839 24.78 4.6 40.3 82 1.8 35.2
00:30 1010 29.83 839 24.78 4.4 40 83 1.8 35.3
00:35 1010 29.83 839 24.78 4.6 40.2 82 1.8 35.3
00:40 1010 29.83 839 24.78 4.5 40 83 1.8 35.2
00:45 1010 29.83 839 24.78 4.6 40.3 82 1.7 35.1
00:50 1010 29.83 839 24.78 4.6 40.2 82 1.8 35.3
00:55 1010 29.83 839 24.78 4.5 40.1 82 1.7 35.1
01:00 1010 29.83 839 24.78 4.3 39.8 83 1.7 35
01:05 1010 29.83 839 24.78 4.2 39.5 83 1.5 34.7
01:10 1010 29.83 839 24.78 4.4 39.8 82 1.6 34.9
01:15 1010 29.83 839 24.78 4.4 39.9 84 1.8 35.3
01:20 1010 29.83 839 24.78 4.1 39.4 84 1.7 35
01:25 1010 29.83 839 24.78 4 39.1 85 1.7 35.1
01:30 1010 29.83 839 24.78 3.9 38.9 85 1.6 34.9
01:35 1010 29.83 839 24.78 3.9 39 85 1.6 34.9
01:40 1010 29.83 839 24.78 3.8 38.9 86 1.7 35
01:45 1010 29.83 839 24.78 3.8 38.9 86 1.7 35
01:50 1010 29.83 839 24.78 3.7 38.6 85 1.4 34.6
01:55 1010 29.83 839 24.78 3.8 38.9 85 1.5 34.7
02:00 1010 29.83 839 24.78 3.8 38.8 86 1.6 34.9
02:05 1010 29.83 839 24.78 3.7 38.6 86 1.5 34.7
02:10 1010 29.83 839 24.78 3.7 38.7 86 1.5 34.8
02:15 1010 29.83 839 24.78 3.7 38.6 86 1.6 34.8
02:20 1010 29.83 839 24.78 3.8 38.8 85 1.4 34.6
02:25 1010 29.83 839 24.78 4 39.2 84 1.5 34.7
02:30 1010 29.83 839 24.78 4.2 39.6 83 1.6 35
02:35 1010 29.83 839 24.78 4.3 39.7 84 1.8 35.2
02:40 1010 29.83 839 24.78 4.3 39.7 83 1.6 35
02:45 1010 29.83 839 24.78 4.4 40 82 1.6 34.8
02:50 1010 29.83 839 24.78 4.4 39.9 82 1.6 34.9
02:55 1010 29.83 839 24.78 4.4 39.9 82 1.6 34.9
03:00 1010 29.83 839 24.78 4.3 39.8 83 1.6 34.9
03:05 1010 29.83 839 24.78 4.2 39.6 83 1.6 35
03:10 1010 29.83 839 24.78 4.2 39.5 84 1.7 35.1
03:15 1010 29.83 839 24.78 4.1 39.3 85 1.7 35.1
03:20 1010 29.83 839 24.78 4 39.3 85 1.7 35.1
03:25 1010 29.83 839 24.78 4 39.2 86 1.8 35.2
03:30 1010 29.83 839 24.78 3.8 38.9 85 1.6 34.9
03:35 1010 29.83 839 24.78 4 39.2 82 1.3 34.3
03:40 1010 29.83 839 24.78 4.1 39.4 82 1.3 34.4
03:45 1010 29.83 839 24.78 4 39.2 83 1.4 34.5
03:50 1010 29.83 839 24.78 3.9 38.9 86 1.7 35
03:55 1010 29.83 839 24.78 3.8 38.9 85 1.6 34.8
04:00 1010 29.83 839 24.78 3.8 38.9 85 1.5 34.6
04:05 1010 29.83 839 24.78 3.6 38.5 87 1.6 34.9
04:10 1010 29.83 839 24.78 3.4 38.2 87 1.5 34.7
04:15 1010 29.83 839 24.78 3.4 38.1 85 1.1 33.9
04:20 1010 29.83 839 24.78 3.4 38.1 84 0.9 33.6
04:25 1010 29.83 839 24.78 3.3 38 85 1 33.9
04:30 1010 29.83 839 24.78 3.1 37.6 85 0.8 33.5
04:35 1010 29.83 839 24.78 2.8 37 86 0.7 33.3
04:40 1010 29.83 840 24.81 2.5 36.5 87 0.6 33.1
04:45 1010 29.83 840 24.81 2.5 36.4 87 0.6 33.1
04:50 1010 29.83 840 24.81 2.7 36.9 87 0.8 33.4
04:55 1010 29.83 840 24.81 3.1 37.6 84 0.7 33.3
05:00 1010 29.83 840 24.81 3.2 37.7 84 0.7 33.2
05:05 1011 29.85 840 24.81 2.6 36.7 86 0.5 32.8
05:10 1011 29.85 840 24.81 2.3 36.2 87 0.4 32.8
05:15 1011 29.85 840 24.81 2.5 36.5 87 0.5 32.8
05:20 1011 29.85 840 24.81 2.6 36.6 87 0.7 33.2
05:25 1011 29.85 840 24.81 2.6 36.6 87 0.6 33.1
05:30 1011 29.85 840 24.81 2.8 37 86 0.7 33.2
05:35 1011 29.85 840 24.81 2.7 36.8 87 0.8 33.4
05:40 1011 29.85 840 24.81 2.7 36.8 87 0.8 33.4
05:45 1011 29.85 840 24.81 2.7 36.9 87 0.8 33.4
05:50 1011 29.85 840 24.81 2.6 36.6 88 0.8 33.4
05:55 1011 29.85 840 24.81 2.6 36.7 88 0.8 33.4
06:00 1011 29.85 840 24.81 2.6 36.6 88 0.8 33.5
06:05 1011 29.85 840 24.81 2.7 36.8 88 0.9 33.7
06:10 1011 29.85 840 24.81 2.8 37 88 1 33.8
06:15 1011 29.85 840 24.81 2.7 36.9 88 0.9 33.7
06:20 1011 29.85 840 24.81 2.8 37 88 1 33.7
06:25 1011 29.85 840 24.81 3 37.3 87 1 33.7
06:30 1011 29.85 840 24.81 3.2 37.7 85 0.9 33.5
06:35 1011 29.85 840 24.81 3.3 37.9 85 0.9 33.6
06:40 1011 29.85 840 24.81 3.3 37.9 84 0.9 33.5
06:45 1011 29.85 840 24.81 3.5 38.2 84 0.9 33.7
06:50 1011 29.85 840 24.81 3.5 38.3 84 1 33.8
06:55 1011 29.85 840 24.81 3.2 37.8 85 0.9 33.7
07:00 1011 29.85 841 24.83 3.2 37.7 85 0.9 33.7
07:05 1011 29.85 841 24.83 3.2 37.7 86 1 33.8
07:10 1011 29.85 841 24.83 3.2 37.7 86 1 33.7
07:15 1012 29.88 841 24.83 3.1 37.6 86 1 33.8
07:20 1012 29.88 841 24.83 3.2 37.7 85 0.9 33.7
07:25 1012 29.88 841 24.83 3.3 37.9 85 1 33.9
07:30 1012 29.88 841 24.83 3.4 38.1 85 1.1 34
07:35 1012 29.88 841 24.83 3.4 38.2 85 1.2 34.1
07:40 1012 29.88 841 24.83 3.6 38.5 85 1.2 34.2
07:45 1012 29.88 841 24.83 3.9 39.1 83 1.3 34.4
07:50 1012 29.88 841 24.83 4.1 39.5 82 1.4 34.5
07:55 1012 29.88 841 24.83 4.2 39.6 82 1.4 34.6
08:00 1012 29.88 841 24.83 4.2 39.6 83 1.5 34.7
08:05 1012 29.88 841 24.83 4.3 39.7 82 1.5 34.6
08:10 1012 29.88 841 24.83 4.3 39.7 82 1.5 34.7
08:15 1012 29.88 841 24.83 4.3 39.8 83 1.6 34.9
08:20 1012 29.88 841 24.83 4.3 39.8 82 1.6 34.9
08:25 1012 29.88 841 24.83 4.3 39.8 82 1.6 34.8
08:30 1012 29.88 841 24.83 4.4 39.8 82 1.6 34.9
08:35 1012 29.88 841 24.83 4.3 39.8 82 1.6 34.8
08:40 1012 29.88 841 24.83 4.4 39.9 82 1.7 35
08:45 1012 29.88 842 24.86 4.4 39.9 83 1.7 35.1
08:50 1012 29.88 842 24.86 4.3 39.8 84 1.8 35.3
08:55 1012 29.88 842 24.86 4.2 39.6 85 1.8 35.3
09:00 1012 29.88 842 24.86 4 39.3 85 1.8 35.3
09:05 1012 29.88 842 24.86 4.2 39.6 83 1.7 35
09:10 1012 29.88 842 24.86 4.6 40.3 83 1.9 35.4
09:15 1012 29.88 842 24.86 4.5 40.1 84 2.1 35.8
09:20 1012 29.88 842 24.86 4.2 39.6 85 1.8 35.3
09:25 1012 29.88 842 24.86 4.5 40.2 83 2 35.6
09:30 1012 29.88 842 24.86 4.6 40.3 84 2.2 36
09:35 1012 29.88 842 24.86 4.3 39.8 86 2.1 35.8
09:40 1012 29.88 842 24.86 4.4 40 85 2.1 35.7
09:45 1012 29.88 842 24.86 4.7 40.4 83 2.1 35.8
09:50 1012 29.88 842 24.86 4.9 40.8 82 2.1 35.8
09:55 1012 29.88 842 24.86 5 41.1 82 2.3 36.1
10:00 1012 29.88 842 24.86 5 41.1 82 2.3 36.1
10:05 1012 29.88 842 24.86 5.1 41.3 82 2.3 36.2
10:10 1012 29.88 842 24.86 5.2 41.4 81 2.3 36.2
10:15 1012 29.88 842 24.86 5.4 41.6 82 2.5 36.4
10:20 1012 29.88 842 24.86 5.4 41.7 81 2.3 36.2
10:25 1013 29.91 842 24.86 5.5 41.9 82 2.6 36.7
10:30 1013 29.91 842 24.86 5.3 41.6 81 2.4 36.3
10:35 1013 29.91 842 24.86 5.4 41.7 81 2.5 36.4
10:40 1013 29.91 842 24.86 5.5 41.8 81 2.5 36.5
10:45 1013 29.91 842 24.86 5.5 41.9 81 2.5 36.5
10:50 1013 29.91 842 24.86 5.4 41.7 82 2.6 36.7
10:55 1013 29.91 842 24.86 5.5 41.9 82 2.7 36.8
11:00 1013 29.91 842 24.86 5.5 41.8 82 2.7 36.8
11:05 1013 29.91 842 24.86 5.4 41.8 82 2.6 36.7
11:10 1013 29.91 842 24.86 5.5 41.9 82 2.6 36.7
11:15 1013 29.91 842 24.86 5.5 41.9 82 2.6 36.7
11:20 1013 29.91 842 24.86 5.5 41.9 81 2.5 36.5
11:25 1013 29.91 842 24.86 5.5 41.9 82 2.7 36.8
11:30 1013 29.91 842 24.86 5.5 41.9 82 2.6 36.7
11:35 1013 29.91 842 24.86 5.4 41.8 82 2.6 36.7
11:40 1013 29.91 842 24.86 5.4 41.7 83 2.7 36.9
11:45 1013 29.91 842 24.86 5.3 41.5 85 2.9 37.3
11:50 1013 29.91 842 24.86 5.3 41.5 84 2.8 37.1
11:55 1013 29.91 842 24.86 5.2 41.4 85 2.8 37.1
12:00 1013 29.91 842 24.86 5.2 41.4 83 2.6 36.8
12:05 1013 29.91 842 24.86 5.2 41.3 84 2.7 36.8
12:10 1013 29.91 842 24.86 5 41 84 2.6 36.6
12:15 1013 29.91 842 24.86 5.3 41.5 83 2.7 36.8
12:20 1013 29.91 842 24.86 5.3 41.5 84 2.8 37.1
12:25 1013 29.91 842 24.86 5.4 41.7 83 2.7 36.9
12:30 1013 29.91 842 24.86 5.6 42.1 82 2.8 37
12:35 1013 29.91 842 24.86 5.4 41.8 84 3 37.4
12:40 1013 29.91 842 24.86 5.6 42 82 2.8 37
12:45 1013 29.91 842 24.86 5.8 42.5 82 2.9 37.2
12:50 1012 29.88 842 24.86 5.9 42.7 81 2.9 37.2
12:55 1012 29.88 842 24.86 6.2 43.1 79 2.9 37.2
13:00 1012 29.88 842 24.86 6.4 43.5 79 3 37.4
13:05 1012 29.88 842 24.86 6.3 43.3 80 3 37.4
13:10 1012 29.88 842 24.86 6.3 43.3 80 3.1 37.6
13:15 1012 29.88 842 24.86 6.3 43.3 81 3.3 37.9
13:20 1013 29.91 842 24.86 6.3 43.4 81 3.3 38
13:25 1013 29.91 842 24.86 6.2 43.1 81 3.1 37.6
13:30 1013 29.91 842 24.86 6.4 43.4 79 2.9 37.3
13:35 1013 29.91 842 24.86 6.3 43.4 77 2.7 36.8
13:40 1013 29.91 842 24.86 6.1 42.9 78 2.5 36.4
13:45 1013 29.91 842 24.86 6 42.8 78 2.4 36.3
13:50 1013 29.91 842 24.86 6.1 42.9 78 2.6 36.7
13:55 1013 29.91 842 24.86 6 42.9 79 2.8 37
14:00 1013 29.91 842 24.86 5.9 42.7 79 2.6 36.6
14:05 1013 29.91 842 24.86 6 42.8 78 2.6 36.6
14:10 1013 29.91 842 24.86 6.1 43 78 2.6 36.7
14:15 1013 29.91 842 24.86 6.2 43.1 77 2.4 36.3
14:20 1013 29.91 842 24.86 6.2 43.2 75 2.2 35.9
14:25 1013 29.91 842 24.86 6.3 43.3 77 2.5 36.5
14:30 1013 29.91 842 24.86 6.2 43.1 82 3.3 37.9
14:35 1013 29.91 842 24.86 6 42.8 80 2.7 36.9
14:40 1013 29.91 842 24.86 5.8 42.4 83 3.2 37.8
14:45 1013 29.91 842 24.86 5.6 42.1 86 3.4 38.1
14:50 1013 29.91 842 24.86 5.3 41.6 87 3.4 38.1
14:55 1013 29.91 842 24.86 5.2 41.3 87 3.3 37.9
15:00 1013 29.91 842 24.86 5.2 41.3 88 3.4 38.1
15:05 1013 29.91 842 24.86 5.3 41.5 87 3.4 38.1
15:10 1013 29.91 842 24.86 5.2 41.4 89 3.6 38.4
15:15 1013 29.91 842 24.86 5.2 41.4 88 3.4 38.2
15:20 1013 29.91 842 24.86 5.4 41.7 88 3.6 38.4
15:25 1013 29.91 842 24.86 5.4 41.8 87 3.5 38.3
15:30 1013 29.91 842 24.86 5.3 41.6 86 3.2 37.7
15:35 1013 29.91 842 24.86 5.4 41.7 86 3.3 37.9
15:40 1013 29.91 842 24.86 5.4 41.7 86 3.2 37.7
15:45 1013 29.91 842 24.86 5.5 42 84 3 37.5
15:50 1013 29.91 842 24.86 5.2 41.4 84 2.8 37
15:55 1013 29.91 842 24.86 4.9 40.9 85 2.6 36.8
16:00 1013 29.91 842 24.86 5 40.9 86 2.8 37.1
16:05 1013 29.91 843 24.89 5 41.1 85 2.8 37
16:10 1013 29.91 843 24.89 5.1 41.1 85 2.8 37.1
16:15 1013 29.91 843 24.89 5.1 41.3 84 2.7 36.8
16:20 1013 29.91 843 24.89 5.2 41.3 83 2.6 36.7
16:25 1014 29.94 843 24.89 5.2 41.3 83 2.4 36.4
16:30 1014 29.94 843 24.89 5.3 41.5 81 2.3 36.2
16:35 1014 29.94 843 24.89 5.2 41.4 82 2.4 36.3
16:40 1014 29.94 843 24.89 5.1 41.2 82 2.4 36.3
16:45 1014 29.94 843 24.89 5.3 41.5 82 2.5 36.4
16:50 1014 29.94 843 24.89 5.4 41.7 82 2.6 36.7
16:55 1014 29.94 843 24.89 5.2 41.3 84 2.7 36.9
17:00 1014 29.94 843 24.89 5 40.9 86 2.8 37
17:05 1014 29.94 843 24.89 4.9 40.7 86 2.6 36.8
17:10 1014 29.94 843 24.89 4.9 40.8 86 2.7 36.9
17:15 1014 29.94 843 24.89 4.9 40.8 84 2.4 36.3
17:20 1014 29.94 843 24.89 4.9 40.9 83 2.3 36.1
17:25 1014 29.94 843 24.89 5 40.9 83 2.3 36.2
17:30 1014 29.94 843 24.89 5 40.9 82 2.1 35.9
17:35 1014 29.94 843 24.89 5 41 82 2.2 35.9
17:40 1014 29.94 843 24.89 5 41.1 83 2.5 36.4
17:45 1014 29.94 843 24.89 5 41 83 2.4 36.3
17:50 1014 29.94 843 24.89 5 41.1 83 2.4 36.3
17:55 1014 29.94 843 24.89 5.1 41.2 83 2.4 36.4
18:00 1014 29.94 843 24.89 5 41 84 2.5 36.5
18:05 1014 29.94 843 24.89 4.8 40.7 84 2.3 36.2
18:10 1014 29.94 844 24.92 4.8 40.7 85 2.4 36.4
18:15 1014 29.94 844 24.92 4.7 40.5 85 2.4 36.3
18:20 1014 29.94 844 24.92 4.7 40.5 85 2.3 36.2
18:25 1014 29.94 844 24.92 4.8 40.6 83 2.2 35.9
18:30 1015 29.97 844 24.92 4.9 40.9 83 2.2 36
18:35 1015 29.97 844 24.92 5 41 83 2.4 36.4
18:40 1015 29.97 844 24.92 4.9 40.8 83 2.3 36.1
18:45 1015 29.97 844 24.92 4.9 40.8 82 2.1 35.8
18:50 1015 29.97 844 24.92 4.8 40.7 82 2.1 35.7
18:55 1015 29.97 844 24.92 4.9 40.7 83 2.3 36.1
19:00 1015 29.97 844 24.92 4.8 40.6 82 2 35.6
19:05 1015 29.97 844 24.92 5 41 81 2.1 35.7
19:10 1015 29.97 844 24.92 5.1 41.1 81 2.1 35.8
19:15 1015 29.97 844 24.92 5.1 41.1 81 2.1 35.8
19:20 1015 29.97 844 24.92 5 41.1 80 1.9 35.4
19:25 1015 29.97 844 24.92 5.2 41.3 80 1.9 35.5
19:30 1015 29.97 844 24.92 5.2 41.4 81 2.2 36
19:35 1015 29.97 844 24.92 5 41.1 82 2.3 36.1
19:40 1015 29.97 844 24.92 5 41 82 2.1 35.8
19:45 1015 29.97 844 24.92 4.9 40.9 82 2.1 35.7
19:50 1015 29.97 844 24.92 4.9 40.8 79 1.5 34.7
19:55 1015 29.97 844 24.92 4.8 40.7 80 1.7 35
20:00 1015 29.97 844 24.92 4.9 40.8 80 1.7 35.1
20:05 1015 29.97 844 24.92 4.9 40.8 79 1.6 34.8
20:10 1015 29.97 844 24.92 4.8 40.6 80 1.7 35
20:15 1015 29.97 844 24.92 4.6 40.3 84 2.1 35.7
20:20 1015 29.97 844 24.92 4.4 39.9 84 2 35.6
20:25 1015 29.97 844 24.92 4.3 39.8 84 1.9 35.5
20:30 1015 29.97 844 24.92 4.2 39.5 83 1.6 34.9
20:35 1015 29.97 844 24.92 4.1 39.5 83 1.6 34.8
20:40 1015 29.97 844 24.92 4.1 39.4 85 1.8 35.2
20:45 1015 29.97 844 24.92 3.9 39.1 85 1.7 35.1
20:50 1015 29.97 844 24.92 4 39.2 84 1.5 34.8
20:55 1015 29.97 844 24.92 4 39.2 84 1.5 34.7
21:00 1015 29.97 844 24.92 4 39.2 82 1.3 34.3
21:05 1015 29.97 844 24.92 4.2 39.6 81 1.3 34.4
21:10 1015 29.97 844 24.92 4.3 39.7 81 1.3 34.3
21:15 1015 29.97 844 24.92 4.3 39.7 82 1.5 34.7
21:20 1015 29.97 844 24.92 4.2 39.6 82 1.4 34.6
21:25 1015 29.97 844 24.92 4.3 39.7 82 1.5 34.7
21:30 1015 29.97 844 24.92 4.4 39.8 81 1.4 34.5
21:35 1015 29.97 844 24.92 4.4 39.9 81 1.5 34.7
21:40 1015 29.97 844 24.92 4.4 39.9 81 1.5 34.7
21:45 1015 29.97 844 24.92 4.3 39.8 81 1.4 34.5
21:50 1015 29.97 844 24.92 4.2 39.6 82 1.4 34.5
21:55 1015 29.97 844 24.92 4.2 39.5 82 1.3 34.4
22:00 1015 29.97 844 24.92 4.1 39.4 81 1.2 34.2
22:05 1015 29.97 844 24.92 4.1 39.4 82 1.3 34.3
22:10 1015 29.97 844 24.92 4 39.2 82 1.2 34.1
22:15 1015 29.97 844 24.92 4 39.1 82 1.1 34
22:20 1015 29.97 844 24.92 4 39.2 81 0.9 33.7
22:25 1015 29.97 844 24.92 4 39.2 81 1 33.9
22:30 1015 29.97 844 24.92 3.9 39 81 1 33.8
22:35 1015 29.97 844 24.92 3.8 38.9 80 0.7 33.2
22:40 1015 29.97 844 24.92 4 39.3 76 0.2 32.3
22:45 1015 29.97 844 24.92 4.4 39.9 72 -0.2 31.7
22:50 1015 29.97 844 24.92 4.6 40.2 71 -0.2 31.7
22:55 1015 29.97 844 24.92 4.4 39.9 74 0.2 32.4
23:00 1015 29.97 844 24.92 4.1 39.5 75 0.1 32.1
23:05 1015 29.97 844 24.92 4 39.2 76 0.2 32.4
23:10 1015 29.97 844 24.92 3.9 39.1 76 0.1 32.3
23:15 1015 29.97 844 24.92 4 39.2 73 -0.4 31.2
23:20 1015 29.97 844 24.92 4.2 39.6 72 -0.3 31.4
23:25 1015 29.97 844 24.92 4.3 39.8 70 -0.7 30.7
23:30 1015 29.97 844 24.92 4.5 40 69 -0.7 30.7
23:35 1015 29.97 844 24.92 4.4 39.9 71 -0.4 31.3
23:40 1015 29.97 844 24.92 4.3 39.7 71 -0.5 31
23:45 1015 29.97 844 24.92 4.3 39.7 72 -0.3 31.4
23:50 1015 29.97 844 24.92 4.2 39.5 74 -0.1 31.9
23:55 1015 29.97 844 24.92 4 39.3 75 0 32.1
24:00 1015 29.97 844 24.92 3.9 39 76 0.1 32.2